Time;durP1;ratioP1;P1;durP2;ratioP2;P2;SDS_P1;SDS_P2;PMS_P1;PMS_P2;Temp;Humidity;BMP_temperature;BMP_pressure;BME280_temperature;BME280_humidity;BME280_pressure;Samples;Min_cycle;Max_cycle;Signal;HPM_P1;HPM_P2
2022/01/20 00:00:16;;;;;;;12.70;2.97;;;4.60;99.90;;;;;;5019696;28;20047;-86
2022/01/20 00:02:42;;;;;;;14.70;2.70;;;4.50;99.90;;;;;;5020207;28;20037;-86
2022/01/20 00:27:15;;;;;;;17.50;2.40;;;4.40;99.90;;;;;;5016498;28;20106;-86
2022/01/20 00:35:22;;;;;;;14.68;2.60;;;4.30;99.90;;;;;;5018602;28;20076;-86
2022/01/20 00:37:49;;;;;;;11.95;2.55;;;5.20;99.90;;;;;;5039008;28;20120;-86
2022/01/20 00:40:15;;;;;;;15.93;2.80;;;5.80;99.90;;;;;;5015903;28;20037;-86
2022/01/20 00:42:42;;;;;;;13.90;2.72;;;5.40;99.90;;;;;;5044086;28;20059;-86
2022/01/20 00:45:08;;;;;;;13.07;2.67;;;4.30;99.90;;;;;;5039904;28;20049;-85
2022/01/20 00:47:34;;;;;;;10.75;2.00;;;4.30;99.90;;;;;;5038459;28;20045;-86
2022/01/20 00:50:00;;;;;;;16.50;2.65;;;4.30;99.90;;;;;;5032946;28;20132;-86
2022/01/20 00:52:26;;;;;;;15.65;2.67;;;4.40;99.90;;;;;;5000537;28;20123;-85
2022/01/20 00:54:52;;;;;;;13.73;2.78;;;4.40;99.90;;;;;;5021647;28;20494;-86
2022/01/20 00:57:18;;;;;;;11.45;2.22;;;4.40;99.90;;;;;;5013083;28;20502;-86
2022/01/20 00:59:44;;;;;;;13.27;2.40;;;5.50;99.90;;;;;;5017504;28;20033;-87
2022/01/20 01:02:11;;;;;;;18.02;2.97;;;6.00;99.90;;;;;;5019968;28;20040;-86
2022/01/20 01:04:39;;;;;;;15.73;2.70;;;5.30;99.90;;;;;;5013338;28;20037;-86
2022/01/20 01:07:44;;;;;;;14.95;2.75;;;5.20;99.90;;;;;;5025256;28;20033;-85
2022/01/20 01:10:08;;;;;;;14.05;2.17;;;5.00;99.90;;;;;;5033471;28;20049;-86
2022/01/20 01:15:33;;;;;;;13.85;2.50;;;5.10;99.90;;;;;;5036413;28;20072;-85
2022/01/20 01:23:28;;;;;;;9.70;1.73;;;5.50;99.90;;;;;;5013967;28;20079;-86
2022/01/20 01:25:56;;;;;;;11.55;1.92;;;3.90;99.90;;;;;;5020018;28;20045;-85
2022/01/20 01:28:25;;;;;;;7.88;1.88;;;3.70;99.90;;;;;;5024727;28;20077;-85
2022/01/20 01:33:18;;;;;;;10.88;2.05;;;3.60;99.90;;;;;;5023035;28;20068;-85
2022/01/20 01:35:44;;;;;;;8.07;1.55;;;3.60;99.90;;;;;;5018537;28;20041;-86
2022/01/20 01:40:38;;;;;;;9.23;1.73;;;3.50;99.90;;;;;;5001061;28;20116;-86
2022/01/20 01:43:12;;;;;;;7.72;1.77;;;4.50;99.90;;;;;;5015401;28;20060;-85
2022/01/20 01:45:40;;;;;;;9.10;1.70;;;4.80;99.90;;;;;;4998618;28;20037;-85
2022/01/20 01:48:07;;;;;;;10.98;2.20;;;5.00;99.90;;;;;;5038413;28;20049;-85
2022/01/20 01:50:33;;;;;;;8.32;1.85;;;3.70;99.90;;;;;;5036698;28;20061;-86
2022/01/20 01:53:03;;;;;;;11.00;2.70;;;3.70;99.90;;;;;;5021688;28;20466;-86
2022/01/20 01:55:30;;;;;;;12.15;1.88;;;3.80;99.90;;;;;;5018790;28;20037;-85
2022/01/20 01:57:56;;;;;;;11.60;2.22;;;4.50;99.90;;;;;;5040131;28;20210;-86
2022/01/20 02:00:22;;;;;;;14.65;2.72;;;4.50;99.90;;;;;;5011330;28;20129;-86
2022/01/20 02:02:48;;;;;;;12.48;2.00;;;5.00;99.90;;;;;;5010416;28;20040;-86
2022/01/20 02:05:16;;;;;;;12.10;2.40;;;4.70;99.90;;;;;;5023662;28;20037;-85
2022/01/20 02:20:59;;;;;;;15.85;2.97;;;4.00;99.90;;;;;;5004069;28;20498;-86
2022/01/20 02:23:26;;;;;;;13.13;2.40;;;4.70;99.90;;;;;;5003979;28;20098;-86
2022/01/20 02:25:53;;;;;;;13.45;2.35;;;4.00;99.90;;;;;;5033107;28;20462;-86
2022/01/20 02:28:19;;;;;;;15.20;2.42;;;4.70;99.90;;;;;;5053757;28;20498;-86
2022/01/20 02:30:45;;;;;;;15.43;2.88;;;3.80;99.90;;;;;;5024989;28;20049;-85
2022/01/20 02:33:16;;;;;;;13.07;2.83;;;3.90;99.90;;;;;;5034937;28;20037;-85
2022/01/20 02:35:45;;;;;;;16.40;3.72;;;3.60;99.90;;;;;;5015552;28;20053;-85
2022/01/20 02:38:21;;;;;;;16.75;3.08;;;4.30;99.90;;;;;;5019062;28;20061;-85
2022/01/20 02:46:02;;;;;;;18.70;2.80;;;4.10;99.90;;;;;;5024824;28;20045;-86
2022/01/20 02:48:28;;;;;;;18.92;3.55;;;3.70;99.90;;;;;;5038885;28;20132;-85
2022/01/20 02:50:54;;;;;;;17.63;3.25;;;5.20;99.90;;;;;;5013239;28;20557;-86
2022/01/20 02:53:19;;;;;;;26.10;4.80;;;4.30;99.90;;;;;;5003195;28;20114;-86
2022/01/20 02:55:45;;;;;;;19.42;4.15;;;3.80;99.90;;;;;;5021220;28;20033;-86
2022/01/20 02:58:11;;;;;;;26.70;4.50;;;5.20;99.90;;;;;;5009666;28;20037;-86
2022/01/20 03:00:37;;;;;;;19.85;4.45;;;4.00;99.90;;;;;;5011582;28;20055;-86
2022/01/20 03:03:03;;;;;;;17.73;3.85;;;5.00;99.90;;;;;;5006732;28;20034;-86
2022/01/20 03:05:31;;;;;;;12.85;2.45;;;4.00;99.90;;;;;;5004481;28;20133;-85
2022/01/20 03:07:57;;;;;;;15.40;3.38;;;4.00;99.90;;;;;;5027027;28;20056;-86
2022/01/20 03:10:23;;;;;;;16.80;2.92;;;6.00;99.90;;;;;;5020944;28;20050;-85
2022/01/20 03:12:50;;;;;;;15.80;3.22;;;3.80;99.90;;;;;;5011812;28;20448;-86
2022/01/20 03:15:16;;;;;;;15.77;3.30;;;3.70;99.90;;;;;;5019272;28;20037;-85
2022/01/20 03:17:42;;;;;;;13.07;2.97;;;5.00;99.90;;;;;;5023761;28;20131;-87
2022/01/20 03:20:08;;;;;;;13.13;3.13;;;3.60;99.90;;;;;;5018807;28;20033;-86
2022/01/20 03:22:34;;;;;;;20.52;3.13;;;3.60;99.90;;;;;;5020146;28;20378;-85
2022/01/20 03:24:59;;;;;;;22.58;3.17;;;3.60;99.90;;;;;;5003049;28;20048;-86
2022/01/20 03:27:25;;;;;;;18.60;3.88;;;4.80;99.90;;;;;;5004454;28;20067;-86
2022/01/20 03:29:51;;;;;;;18.45;3.55;;;5.20;99.90;;;;;;5027448;28;20492;-86
2022/01/20 03:32:17;;;;;;;20.83;4.30;;;3.60;99.90;;;;;;5016778;28;20208;-86
2022/01/20 03:34:42;;;;;;;18.13;3.80;;;3.60;99.90;;;;;;5009667;28;20045;-85
2022/01/20 03:37:09;;;;;;;20.98;3.65;;;3.60;99.90;;;;;;5011982;28;20029;-85
2022/01/20 03:39:35;;;;;;;19.88;3.72;;;5.10;99.90;;;;;;5018534;28;20133;-85
2022/01/20 03:42:00;;;;;;;14.68;3.10;;;4.20;99.90;;;;;;5018228;28;20519;-86
2022/01/20 03:44:26;;;;;;;11.27;3.05;;;3.80;99.90;;;;;;5027393;28;20479;-85
2022/01/20 03:46:52;;;;;;;15.98;2.95;;;3.80;99.90;;;;;;4995174;28;20092;-85
2022/01/20 03:49:27;;;;;;;13.60;2.80;;;4.10;99.90;;;;;;5029752;28;20394;-85
2022/01/20 03:51:54;;;;;;;13.48;2.45;;;4.00;99.90;;;;;;5007009;28;20082;-86
2022/01/20 03:54:20;;;;;;;11.77;2.47;;;4.00;99.90;;;;;;5016943;28;20045;-86
2022/01/20 03:56:46;;;;;;;10.05;2.40;;;5.70;99.90;;;;;;5026145;28;20044;-85
2022/01/20 03:59:12;;;;;;;11.10;2.42;;;3.90;99.90;;;;;;5033311;28;20060;-85
2022/01/20 04:01:37;;;;;;;14.48;3.33;;;5.10;99.90;;;;;;5018923;28;20041;-85
2022/01/20 04:04:03;;;;;;;11.05;2.45;;;4.60;99.90;;;;;;5008852;28;20490;-86
2022/01/20 04:06:29;;;;;;;15.02;2.88;;;3.90;99.90;;;;;;5011041;28;20047;-85
2022/01/20 04:08:55;;;;;;;15.98;3.20;;;3.80;99.90;;;;;;5024541;28;20038;-85
2022/01/20 04:11:24;;;;;;;12.50;3.08;;;3.80;99.90;;;;;;5027234;28;20117;-84
2022/01/20 04:13:51;;;;;;;14.90;2.90;;;3.80;99.90;;;;;;5019074;28;20042;-84
2022/01/20 04:16:39;;;;;;;14.65;3.20;;;3.80;99.90;;;;;;5039991;28;20512;-85
2022/01/20 04:19:07;;;;;;;13.75;3.17;;;3.80;99.90;;;;;;5025259;28;20071;-85
2022/01/20 04:21:34;;;;;;;14.40;2.90;;;3.80;99.90;;;;;;5029876;28;20033;-85
2022/01/20 04:24:02;;;;;;;13.15;3.53;;;3.80;99.90;;;;;;5036262;28;20180;-84
2022/01/20 04:26:28;;;;;;;16.88;3.00;;;3.80;99.90;;;;;;5030499;28;20037;-85
2022/01/20 04:28:58;;;;;;;13.77;2.55;;;3.80;99.90;;;;;;5028098;28;20183;-85
2022/01/20 04:31:26;;;;;;;15.07;2.83;;;3.90;99.90;;;;;;5034919;28;20103;-85
2022/01/20 04:33:52;;;;;;;15.10;2.67;;;3.90;99.90;;;;;;5036036;28;20056;-85
2022/01/20 04:36:18;;;;;;;11.82;2.60;;;5.20;99.90;;;;;;5022909;28;20086;-85
2022/01/20 04:38:44;;;;;;;13.13;2.80;;;5.70;99.90;;;;;;5025426;28;20042;-85
2022/01/20 04:41:10;;;;;;;13.38;2.90;;;3.90;99.90;;;;;;5003124;28;20716;-85
2022/01/20 04:43:37;;;;;;;17.05;3.22;;;4.00;99.90;;;;;;5017069;28;20283;-84
2022/01/20 04:46:33;;;;;;;14.93;3.47;;;3.90;99.90;;;;;;5006848;28;20079;-85
2022/01/20 04:49:07;;;;;;;15.43;3.50;;;4.10;99.90;;;;;;5037800;28;20041;-85
2022/01/20 04:57:17;;;;;;;18.67;3.28;;;5.10;99.90;;;;;;5034704;28;20041;-85
2022/01/20 04:59:44;;;;;;;18.15;3.10;;;3.50;99.90;;;;;;5013126;28;20045;-84
2022/01/20 05:02:11;;;;;;;14.10;3.50;;;4.10;99.90;;;;;;5019169;28;20072;-85
2022/01/20 05:04:37;;;;;;;14.68;3.08;;;5.00;99.90;;;;;;5024163;28;20045;-85
2022/01/20 05:07:04;;;;;;;15.93;3.08;;;3.30;99.90;;;;;;5013646;28;20134;-85
2022/01/20 05:09:30;;;;;;;14.02;2.85;;;3.40;99.90;;;;;;5055176;28;20476;-85
2022/01/20 05:12:10;;;;;;;16.02;4.05;;;3.40;99.90;;;;;;5023206;28;20164;-85
2022/01/20 05:14:36;;;;;;;17.10;3.03;;;3.80;99.90;;;;;;5039682;28;20038;-85
2022/01/20 05:17:02;;;;;;;15.63;2.90;;;3.40;99.90;;;;;;5030524;28;20041;-85
2022/01/20 05:19:30;;;;;;;13.95;2.60;;;3.40;99.90;;;;;;5026092;28;20053;-85
2022/01/20 05:21:56;;;;;;;13.32;2.53;;;3.40;99.90;;;;;;5025870;28;20033;-85
2022/01/20 05:24:22;;;;;;;11.85;2.20;;;4.30;99.90;;;;;;5016789;28;20064;-85
2022/01/20 05:26:50;;;;;;;9.18;2.17;;;3.20;99.90;;;;;;5013311;28;20498;-85
2022/01/20 05:29:17;;;;;;;8.68;2.25;;;3.10;99.90;;;;;;5037992;28;20148;-85
2022/01/20 05:31:42;;;;;;;12.45;2.38;;;3.10;99.90;;;;;;5039282;28;20421;-85
2022/01/20 05:34:08;;;;;;;13.30;2.58;;;4.10;99.90;;;;;;5009669;28;20045;-84
2022/01/20 05:36:34;;;;;;;13.60;2.88;;;2.90;99.90;;;;;;5027703;28;20449;-85
2022/01/20 05:39:00;;;;;;;13.80;2.70;;;2.80;99.90;;;;;;5038824;28;20036;-84
2022/01/20 05:41:26;;;;;;;11.40;2.72;;;2.80;99.90;;;;;;5038777;28;20459;-85
2022/01/20 05:43:51;;;;;;;12.10;2.60;;;3.10;99.90;;;;;;5023981;28;20132;-84
2022/01/20 05:46:22;;;;;;;13.88;2.92;;;2.80;99.90;;;;;;5020836;28;20110;-84
2022/01/20 05:48:49;;;;;;;14.93;2.70;;;3.80;99.90;;;;;;5004437;28;20075;-85
2022/01/20 05:51:15;;;;;;;16.33;2.80;;;4.50;99.90;;;;;;5011679;28;20052;-85
2022/01/20 05:53:42;;;;;;;14.43;2.63;;;2.80;99.90;;;;;;5000587;28;20045;-84
2022/01/20 05:56:07;;;;;;;13.05;2.45;;;2.70;99.90;;;;;;5014366;28;20162;-84
2022/01/20 05:58:36;;;;;;;15.52;2.72;;;2.80;99.90;;;;;;5026091;28;20510;-85
2022/01/20 06:01:05;;;;;;;12.60;2.53;;;2.80;99.90;;;;;;5005346;28;20603;-85
2022/01/20 06:03:37;;;;;;;11.43;2.83;;;2.90;99.90;;;;;;5027508;28;20049;-84
2022/01/20 06:06:08;;;;;;;11.52;3.17;;;2.90;99.90;;;;;;5027747;28;20125;-85
2022/01/20 06:08:35;;;;;;;16.63;3.25;;;3.00;99.90;;;;;;5034144;28;20072;-84
2022/01/20 06:11:01;;;;;;;14.35;2.45;;;3.10;99.90;;;;;;5009385;28;20132;-85
2022/01/20 06:13:27;;;;;;;16.08;3.03;;;3.10;99.90;;;;;;5024155;28;20127;-84
2022/01/20 06:15:53;;;;;;;13.07;2.83;;;3.20;99.90;;;;;;5021577;28;20486;-84
2022/01/20 06:18:19;;;;;;;13.98;2.80;;;3.40;99.90;;;;;;5018165;28;20057;-85
2022/01/20 06:20:46;;;;;;;17.90;3.25;;;4.50;99.90;;;;;;5016095;28;20120;-84
2022/01/20 06:23:12;;;;;;;14.95;3.08;;;5.10;99.90;;;;;;5024768;28;20025;-85
2022/01/20 06:25:38;;;;;;;15.23;3.17;;;4.90;99.90;;;;;;5036174;28;20084;-84
2022/01/20 06:28:04;;;;;;;19.08;3.60;;;4.50;99.90;;;;;;5019512;28;20494;-84
2022/01/20 06:30:32;;;;;;;13.43;2.63;;;3.60;99.90;;;;;;5001942;28;20029;-85
2022/01/20 06:32:58;;;;;;;14.20;2.53;;;3.60;99.90;;;;;;5032230;28;20452;-84
2022/01/20 06:35:24;;;;;;;11.75;2.47;;;5.10;99.90;;;;;;5017756;28;20465;-84
2022/01/20 06:37:50;;;;;;;10.80;2.45;;;5.00;99.90;;;;;;5031482;28;20040;-84
2022/01/20 06:40:16;;;;;;;15.57;2.80;;;5.30;99.90;;;;;;5017410;28;20141;-84
2022/01/20 06:42:43;;;;;;;15.68;3.20;;;4.90;99.90;;;;;;5011388;28;20397;-85
2022/01/20 06:45:11;;;;;;;15.20;3.08;;;3.50;99.90;;;;;;5019883;28;20045;-85
2022/01/20 06:47:37;;;;;;;15.48;3.08;;;3.40;99.90;;;;;;5021659;28;20041;-85
2022/01/20 06:50:04;;;;;;;14.65;3.33;;;3.30;99.90;;;;;;5010436;28;20045;-85
2022/01/20 06:52:30;;;;;;;14.52;3.72;;;3.20;99.90;;;;;;5031660;28;20056;-84
2022/01/20 06:54:57;;;;;;;16.75;3.33;;;4.70;99.90;;;;;;5028314;28;20347;-84
2022/01/20 06:57:23;;;;;;;16.50;3.30;;;4.00;99.90;;;;;;5015983;28;20036;-85
2022/01/20 06:59:49;;;;;;;15.00;3.13;;;3.00;99.90;;;;;;5011925;28;20041;-85
2022/01/20 07:02:15;;;;;;;14.60;2.63;;;3.00;99.90;;;;;;5001743;28;20189;-84
2022/01/20 07:04:43;;;;;;;15.73;3.05;;;3.00;99.90;;;;;;5021537;28;20025;-85
2022/01/20 07:07:09;;;;;;;14.32;2.92;;;3.00;99.90;;;;;;5020351;28;20037;-85
2022/01/20 07:09:36;;;;;;;17.33;3.05;;;4.10;99.90;;;;;;5036702;28;20041;-85
2022/01/20 07:12:03;;;;;;;12.25;2.60;;;4.60;99.90;;;;;;5001619;28;20037;-85
2022/01/20 07:14:30;;;;;;;15.63;3.25;;;3.00;99.90;;;;;;5005203;28;20394;-84
2022/01/20 07:16:56;;;;;;;18.50;3.05;;;3.10;99.90;;;;;;5003987;28;20063;-85
2022/01/20 07:19:22;;;;;;;15.73;3.22;;;4.70;99.90;;;;;;5031393;28;20050;-85
2022/01/20 07:21:47;;;;;;;17.02;3.10;;;4.20;99.90;;;;;;5027444;28;20037;-84
2022/01/20 07:24:14;;;;;;;13.25;3.17;;;3.10;99.90;;;;;;5024449;28;20029;-83
2022/01/20 07:26:39;;;;;;;17.92;3.13;;;3.10;99.90;;;;;;5028618;28;20198;-84
2022/01/20 07:29:05;;;;;;;18.70;3.10;;;3.10;99.90;;;;;;5016053;28;20472;-84
2022/01/20 07:31:32;;;;;;;17.55;3.95;;;;;;;;;;5020155;28;20533;-84
2022/01/20 07:33:57;;;;;;;18.40;3.10;;;3.10;99.90;;;;;;5026655;28;20040;-83
2022/01/20 07:36:23;;;;;;;17.30;3.20;;;3.30;99.90;;;;;;5018607;28;20037;-85
2022/01/20 07:38:49;;;;;;;15.32;2.65;;;3.00;99.90;;;;;;5017787;28;20037;-85
2022/01/20 07:41:15;;;;;;;11.13;2.35;;;3.10;99.90;;;;;;5021356;28;20045;-86
2022/01/20 07:43:41;;;;;;;11.05;2.28;;;3.00;99.90;;;;;;5002793;28;20544;-86
2022/01/20 07:46:07;;;;;;;10.80;2.30;;;4.70;99.90;;;;;;5038755;28;20044;-85
2022/01/20 07:48:34;;;;;;;9.68;2.20;;;4.40;99.90;;;;;;5017718;28;20497;-85
2022/01/20 07:51:00;;;;;;;9.88;1.80;;;3.00;99.90;;;;;;5021678;28;20045;-84
2022/01/20 07:53:26;;;;;;;8.27;1.95;;;3.40;99.90;;;;;;5015859;28;20141;-86
2022/01/20 07:55:52;;;;;;;6.28;1.98;;;3.90;99.90;;;;;;5030990;28;20033;-85
2022/01/20 07:58:18;;;;;;;12.35;1.80;;;2.90;99.90;;;;;;5006363;28;20045;-86
2022/01/20 08:00:44;;;;;;;10.30;1.83;;;2.30;99.90;;;;;;5007103;28;20108;-85
2022/01/20 08:03:10;;;;;;;12.98;2.75;;;2.40;99.90;;;;;;5021919;28;20112;-84
2022/01/20 08:05:36;;;;;;;9.30;2.10;;;2.60;99.90;;;;;;4993920;28;20128;-85
2022/01/20 08:08:02;;;;;;;14.10;2.35;;;2.70;99.90;;;;;;5010829;28;20033;-85
2022/01/20 08:10:27;;;;;;;12.80;2.53;;;2.80;99.90;;;;;;5035342;28;20052;-86
2022/01/20 08:12:54;;;;;;;12.55;2.40;;;2.80;99.90;;;;;;5006427;28;20040;-85
2022/01/20 08:15:21;;;;;;;12.60;2.42;;;2.80;99.90;;;;;;5041056;28;20041;-85
2022/01/20 08:17:47;;;;;;;14.55;3.25;;;4.70;99.90;;;;;;5002958;28;20060;-86
2022/01/20 08:20:13;;;;;;;15.07;3.00;;;2.90;99.90;;;;;;5005742;28;20037;-85
2022/01/20 08:22:39;;;;;;;14.73;2.72;;;2.90;99.90;;;;;;5006662;28;20033;-85
2022/01/20 08:25:11;;;;;;;13.75;3.03;;;3.70;99.90;;;;;;5037386;28;20041;-87
2022/01/20 08:27:38;;;;;;;12.63;2.42;;;3.00;99.90;;;;;;5030537;28;20124;-87
2022/01/20 08:30:09;;;;;;;20.98;2.90;;;4.70;99.90;;;;;;5031446;28;20487;-88
2022/01/20 08:32:35;;;;;;;14.48;3.28;;;3.00;99.90;;;;;;5035590;28;20563;-85
2022/01/20 08:35:05;;;;;;;18.17;3.28;;;3.10;99.90;;;;;;5032804;28;20037;-90
2022/01/20 08:37:32;;;;;;;12.98;2.55;;;4.70;99.90;;;;;;5003115;28;20033;-87
2022/01/20 08:39:58;;;;;;;14.55;2.30;;;3.20;99.90;;;;;;5008781;28;20108;-86
2022/01/20 08:42:24;;;;;;;13.25;3.38;;;3.30;99.90;;;;;;5002681;28;20129;-85
2022/01/20 08:44:50;;;;;;;13.27;2.63;;;3.30;99.90;;;;;;5026881;28;20048;-87
2022/01/20 08:47:17;;;;;;;13.35;2.58;;;3.40;99.90;;;;;;5016036;28;20561;-88
2022/01/20 08:49:48;;;;;;;12.27;2.55;;;3.50;99.90;;;;;;5000069;28;20040;-87
2022/01/20 08:52:15;;;;;;;14.52;2.83;;;5.20;99.90;;;;;;5023030;28;20439;-87
2022/01/20 08:54:45;;;;;;;13.63;2.55;;;5.40;99.90;;;;;;5017831;28;20041;-86
2022/01/20 08:57:10;;;;;;;13.38;2.65;;;3.80;99.90;;;;;;5026076;28;20056;-86
2022/01/20 08:59:40;;;;;;;11.43;2.13;;;5.20;99.90;;;;;;5030098;28;20227;-86
2022/01/20 09:02:06;;;;;;;9.68;2.33;;;3.70;99.90;;;;;;5030175;28;20041;-87
2022/01/20 09:04:32;;;;;;;10.35;2.08;;;3.60;99.90;;;;;;4998533;28;20095;-87
2022/01/20 09:06:58;;;;;;;12.57;2.58;;;3.40;99.90;;;;;;4995055;28;20056;-85
2022/01/20 09:09:24;;;;;;;13.40;2.83;;;3.20;99.90;;;;;;5008373;28;20490;-88
2022/01/20 09:12:14;;;;;;;14.65;2.67;;;3.20;99.90;;;;;;5032505;28;20189;-86
2022/01/20 09:17:23;;;;;;;11.98;2.35;;;4.70;99.90;;;;;;5034441;28;20089;-87
2022/01/20 09:19:49;;;;;;;13.90;2.40;;;3.40;99.90;;;;;;5028610;28;20073;-87
2022/01/20 09:22:15;;;;;;;13.85;2.63;;;4.80;99.90;;;;;;4992216;28;20091;-87
2022/01/20 09:24:42;;;;;;;9.15;2.10;;;3.70;99.90;;;;;;5016882;28;20395;-88
2022/01/20 09:27:08;;;;;;;12.13;2.72;;;4.80;99.90;;;;;;5020993;28;20107;-88
2022/01/20 09:29:34;;;;;;;13.07;2.30;;;3.70;99.90;;;;;;5018379;28;20037;-87
2022/01/20 09:32:02;;;;;;;15.27;3.13;;;3.60;99.90;;;;;;5039441;28;20094;-86
2022/01/20 09:34:28;;;;;;;18.58;3.65;;;3.40;99.90;;;;;;5039921;28;20048;-86
2022/01/20 09:36:54;;;;;;;15.25;3.30;;;4.40;99.90;;;;;;5015039;28;20071;-88
2022/01/20 09:39:20;;;;;;;17.05;3.40;;;3.40;99.90;;;;;;5024234;28;20501;-86
2022/01/20 09:41:47;;;;;;;13.88;3.00;;;3.50;99.90;;;;;;5021921;28;20711;-86
2022/01/20 09:44:13;;;;;;;15.15;2.75;;;3.70;99.90;;;;;;5025859;28;20047;-85
2022/01/20 09:46:39;;;;;;;16.38;3.08;;;3.80;99.90;;;;;;5037915;28;20049;-86
2022/01/20 09:49:05;;;;;;;14.00;2.90;;;3.80;99.90;;;;;;5023432;28;20095;-85
2022/01/20 09:51:31;;;;;;;12.98;2.95;;;3.90;99.90;;;;;;5040500;28;20893;-86
2022/01/20 09:53:57;;;;;;;11.85;2.50;;;4.10;99.90;;;;;;5012864;28;20076;-85
2022/01/20 09:56:23;;;;;;;13.88;2.50;;;5.40;99.90;;;;;;5026798;28;20513;-87
2022/01/20 09:58:49;;;;;;;16.60;2.80;;;4.40;99.90;;;;;;5024476;28;20080;-86
2022/01/20 10:01:32;;;;;;;12.52;2.50;;;4.40;99.90;;;;;;5025723;28;20048;-86
2022/01/20 10:03:58;;;;;;;;;;;6.00;99.90;;;;;;5038317;28;20029;-85
2022/01/20 10:06:24;;;;;;;13.32;2.85;;;5.20;99.90;;;;;;5021233;28;20523;-86
2022/01/20 10:09:00;;;;;;;13.80;2.47;;;4.80;99.90;;;;;;5005567;28;20045;-87
2022/01/20 10:11:29;;;;;;;13.57;3.10;;;4.30;99.90;;;;;;5036614;28;20053;-86
2022/01/20 10:14:05;;;;;;;13.80;2.60;;;4.50;99.90;;;;;;5039359;28;20037;-86
2022/01/20 10:16:31;;;;;;;17.73;3.45;;;5.80;99.90;;;;;;5006056;28;20072;-86
2022/01/20 10:18:59;;;;;;;13.32;3.20;;;4.60;99.90;;;;;;5010303;28;20406;-85
2022/01/20 10:21:37;;;;;;;19.17;2.90;;;4.50;99.90;;;;;;5002926;28;20465;-86
2022/01/20 10:24:11;;;;;;;13.30;2.85;;;4.60;99.90;;;;;;5031406;28;20045;-88
2022/01/20 10:26:38;;;;;;;16.35;3.67;;;4.60;99.90;;;;;;5027504;28;20128;-86
2022/01/20 10:29:14;;;;;;;15.15;2.78;;;5.20;99.90;;;;;;5028827;28;20037;-86
2022/01/20 10:31:49;;;;;;;11.43;2.38;;;5.20;99.90;;;;;;5021781;28;20077;-85
2022/01/20 10:34:35;;;;;;;13.23;2.40;;;4.10;99.90;;;;;;5028385;28;20045;-85
2022/01/20 10:37:06;;;;;;;12.63;2.70;;;4.10;99.90;;;;;;5016776;28;20125;-85
2022/01/20 10:39:45;;;;;;;11.07;2.78;;;3.80;99.90;;;;;;5018718;28;20048;-86
2022/01/20 10:42:17;;;;;;;12.95;2.60;;;3.90;99.90;;;;;;5019125;28;20033;-86
2022/01/20 10:44:49;;;;;;;14.23;2.78;;;4.10;99.90;;;;;;5035306;28;20044;-86
2022/01/20 10:47:21;;;;;;;12.40;2.55;;;4.10;99.90;;;;;;5031157;28;20037;-87
2022/01/20 10:49:47;;;;;;;17.58;3.65;;;4.00;99.90;;;;;;5021336;28;20041;-86
2022/01/20 10:52:16;;;;;;;15.13;3.17;;;3.90;99.90;;;;;;5030844;28;20517;-85
2022/01/20 10:54:43;;;;;;;17.42;4.07;;;3.90;99.90;;;;;;5041490;28;20040;-86
2022/01/20 10:57:11;;;;;;;19.23;3.00;;;4.60;99.90;;;;;;5014855;28;20116;-87
2022/01/20 10:59:50;;;;;;;16.30;3.35;;;3.80;99.90;;;;;;5037702;28;20045;-86
2022/01/20 11:02:21;;;;;;;19.02;3.72;;;4.60;99.90;;;;;;5026779;28;20075;-86
2022/01/20 11:04:49;;;;;;;17.60;3.67;;;5.00;99.90;;;;;;5034005;28;20436;-86
2022/01/20 11:07:15;;;;;;;13.70;3.35;;;4.50;99.90;;;;;;5036204;28;20044;-87
2022/01/20 11:09:47;;;;;;;12.38;3.03;;;5.20;99.90;;;;;;5021095;28;20683;-86
2022/01/20 11:12:15;;;;;;;13.10;2.87;;;4.60;99.90;;;;;;5020112;28;20418;-86
2022/01/20 11:14:43;;;;;;;17.67;2.88;;;4.50;99.90;;;;;;5025376;28;20044;-85
2022/01/20 11:17:25;;;;;;;13.25;2.80;;;4.30;99.90;;;;;;5038793;28;20084;-87
2022/01/20 11:19:51;;;;;;;14.05;2.60;;;4.60;99.90;;;;;;5028658;28;20061;-87
2022/01/20 11:22:19;;;;;;;12.85;3.45;;;4.90;99.90;;;;;;5006992;28;20116;-86
2022/01/20 11:25:00;;;;;;;12.82;2.90;;;4.80;99.90;;;;;;5017657;28;20037;-86
2022/01/20 11:28:04;;;;;;;13.43;3.05;;;4.60;99.90;;;;;;5024045;28;20128;-86
2022/01/20 11:30:32;;;;;;;14.10;2.92;;;4.60;99.90;;;;;;5014342;28;20079;-87
2022/01/20 11:33:10;;;;;;;13.85;2.47;;;4.70;99.90;;;;;;5012361;28;20184;-87
2022/01/20 11:35:51;;;;;;;13.27;2.88;;;6.10;99.90;;;;;;5031378;28;20034;-86
2022/01/20 11:38:19;;;;;;;14.07;3.05;;;4.80;99.90;;;;;;5033976;28;20048;-86
2022/01/20 11:40:58;;;;;;;16.80;3.08;;;5.00;99.90;;;;;;5019258;28;20068;-87
2022/01/20 11:43:52;;;;;;;15.40;2.60;;;5.10;99.90;;;;;;5034498;28;20057;-86
2022/01/20 11:46:20;;;;;;;13.50;3.00;;;5.20;99.90;;;;;;5016811;28;20037;-86
2022/01/20 11:48:56;;;;;;;15.00;2.80;;;6.00;99.90;;;;;;5027851;28;20090;-86
2022/01/20 11:51:23;;;;;;;12.98;3.03;;;5.10;99.90;;;;;;5027508;28;20048;-87
2022/01/20 11:54:04;;;;;;;16.10;3.47;;;5.40;99.90;;;;;;5019447;28;20041;-86
2022/01/20 11:56:34;;;;;;;15.00;3.42;;;4.90;99.90;;;;;;5020582;28;20409;-87
2022/01/20 11:59:00;;;;;;;15.13;3.05;;;6.00;99.90;;;;;;5032680;28;20087;-86
2022/01/20 12:01:27;;;;;;;13.25;2.92;;;4.70;99.90;;;;;;5016183;28;20099;-86
2022/01/20 12:03:55;;;;;;;17.98;3.22;;;5.50;99.90;;;;;;5036786;28;21268;-85
2022/01/20 12:06:25;;;;;;;12.15;2.30;;;4.20;99.90;;;;;;5003640;28;20037;-86
2022/01/20 12:08:54;;;;;;;11.25;2.58;;;4.50;99.90;;;;;;5004820;28;20560;-86
2022/01/20 12:11:20;;;;;;;12.48;2.60;;;4.00;99.90;;;;;;5016425;28;20041;-86
2022/01/20 12:13:46;;;;;;;8.88;1.80;;;4.40;99.90;;;;;;5006055;28;20037;-84
2022/01/20 12:16:18;;;;;;;8.18;1.90;;;5.50;99.90;;;;;;5017881;28;20263;-86
2022/01/20 12:18:52;;;;;;;11.63;2.03;;;2.60;99.90;;;;;;5019830;28;20053;-86
2022/01/20 12:21:18;;;;;;;9.32;2.20;;;4.00;99.90;;;;;;5029647;28;20073;-87
2022/01/20 12:23:46;;;;;;;11.23;2.20;;;6.00;99.90;;;;;;5024368;28;20068;-85
2022/01/20 12:26:11;;;;;;;12.32;2.25;;;6.20;99.90;;;;;;5022475;28;20049;-85
2022/01/20 12:28:37;;;;;;;18.05;2.95;;;5.20;99.90;;;;;;5023908;28;20450;-86
2022/01/20 12:31:05;;;;;;;15.25;2.70;;;4.50;99.90;;;;;;5037030;28;20040;-85
2022/01/20 12:33:33;;;;;;;13.15;2.67;;;6.20;99.90;;;;;;5041092;28;20071;-89
2022/01/20 12:36:03;;;;;;;16.65;3.25;;;4.80;99.90;;;;;;5022039;28;20073;-87
2022/01/20 12:38:32;;;;;;;11.15;2.40;;;4.80;99.90;;;;;;5011464;28;20041;-86
2022/01/20 12:41:15;;;;;;;14.73;3.50;;;4.80;99.90;;;;;;5035321;28;20512;-87
2022/01/20 12:44:00;;;;;;;12.80;2.70;;;4.90;99.90;;;;;;5035944;28;20048;-88
2022/01/20 12:46:28;;;;;;;14.10;2.33;;;4.90;99.90;;;;;;5032994;28;20099;-87
2022/01/20 12:49:12;;;;;;;14.80;2.65;;;6.40;99.90;;;;;;5019957;28;20041;-87
2022/01/20 12:51:51;;;;;;;16.42;2.90;;;5.00;99.90;;;;;;5046089;28;20049;-87
2022/01/20 12:54:32;;;;;;;14.32;3.08;;;6.20;99.90;;;;;;5031844;28;20044;-89
2022/01/20 12:57:07;;;;;;;10.52;2.53;;;6.20;99.90;;;;;;5030233;28;20116;-87
2022/01/20 12:59:36;;;;;;;14.00;2.78;;;5.10;99.90;;;;;;5016390;28;20103;-88
2022/01/20 13:02:19;;;;;;;15.45;2.72;;;5.10;99.90;;;;;;5036012;28;20045;-91
2022/01/20 13:04:45;;;;;;;17.23;3.17;;;5.70;99.90;;;;;;5043919;28;20065;-90
2022/01/20 13:07:15;;;;;;;13.40;3.20;;;7.00;99.90;;;;;;5029409;28;20038;-90
2022/01/20 13:09:46;;;;;;;15.45;3.45;;;6.90;99.90;;;;;;5015520;28;20515;-91
2022/01/20 13:12:14;;;;;;;11.65;2.78;;;5.20;99.90;;;;;;5023346;28;20092;-90
2022/01/20 13:14:50;;;;;;;16.25;2.60;;;7.00;99.90;;;;;;5029114;28;20040;-88
2022/01/20 13:17:28;;;;;;;13.93;2.78;;;4.80;99.90;;;;;;5028274;28;20033;-87
2022/01/20 13:19:56;;;;;;;12.90;2.92;;;6.00;99.90;;;;;;5031741;28;20490;-90
2022/01/20 13:22:32;;;;;;;10.85;2.60;;;4.70;99.90;;;;;;5024618;28;20112;-89
2022/01/20 13:25:07;;;;;;;11.27;2.28;;;4.40;99.90;;;;;;5023795;28;20453;-89
2022/01/20 13:27:33;;;;;;;10.32;2.53;;;3.90;99.90;;;;;;5023582;28;20155;-87
2022/01/20 13:29:59;;;;;;;11.10;2.42;;;5.10;99.90;;;;;;5039812;28;20029;-88
2022/01/20 13:32:24;;;;;;;14.45;2.50;;;3.90;99.90;;;;;;4995853;28;20059;-87
2022/01/20 13:35:01;;;;;;;8.00;2.10;;;4.10;99.90;;;;;;5013327;28;20045;-87
2022/01/20 13:37:31;;;;;;;7.18;1.67;;;5.60;99.90;;;;;;5037317;28;20041;-89
2022/01/20 13:39:59;;;;;;;11.52;2.35;;;4.30;99.90;;;;;;5027966;28;20033;-88
2022/01/20 13:42:45;;;;;;;13.13;2.30;;;4.20;99.90;;;;;;5004377;28;20045;-89
2022/01/20 13:45:17;;;;;;;13.25;2.25;;;5.40;99.90;;;;;;5015274;28;20157;-88
2022/01/20 13:47:59;;;;;;;10.20;2.15;;;4.20;99.90;;;;;;5045835;28;20041;-89
2022/01/20 13:50:43;;;;;;;15.90;2.50;;;5.50;99.90;;;;;;5017539;28;20296;-88
2022/01/20 13:53:26;;;;;;;12.50;2.33;;;4.10;99.90;;;;;;5022896;28;20041;-89
2022/01/20 13:55:53;;;;;;;16.35;2.30;;;4.20;99.90;;;;;;5001758;28;20037;-91
2022/01/20 13:58:33;;;;;;;13.00;2.33;;;5.40;99.90;;;;;;5005644;28;20116;-91
2022/01/20 14:01:01;;;;;;;15.05;2.97;;;4.50;99.90;;;;;;5020967;28;20601;-88
2022/01/20 14:03:27;;;;;;;12.00;2.38;;;4.60;99.90;;;;;;5022602;28;20037;-90